createdAt,value
2023-03-29T00:00:35.379Z,5.2
2023-03-29T00:01:43.805Z,5.2
2023-03-29T00:02:52.494Z,6
2023-03-29T00:04:02.365Z,6
2023-03-29T00:05:09.201Z,6
2023-03-29T00:06:17.804Z,4.2
2023-03-29T00:07:26.221Z,4.2
2023-03-29T00:08:34.642Z,4.2
2023-03-29T00:09:43.232Z,5.3
2023-03-29T00:10:51.676Z,5.3
2023-03-29T00:12:00.076Z,5.3
2023-03-29T00:13:08.689Z,4.4
2023-03-29T00:14:17.091Z,4.4
2023-03-29T00:15:25.514Z,4.4
2023-03-29T00:16:34.163Z,4.2
2023-03-29T00:17:42.584Z,4.2
2023-03-29T00:18:51.010Z,4.2
2023-03-29T00:20:00.335Z,4.8
2023-03-29T00:21:08.756Z,4.8
2023-03-29T00:22:17.194Z,4.8
2023-03-29T00:23:25.804Z,4.7
2023-03-29T00:24:34.222Z,4.7
2023-03-29T00:25:42.624Z,4.7
2023-03-29T00:26:51.282Z,4.9
2023-03-29T00:27:59.663Z,4.9
2023-03-29T00:29:08.061Z,4.9
2023-03-29T00:30:16.678Z,3.2
2023-03-29T00:31:25.117Z,3.2
2023-03-29T00:32:33.531Z,3.2
2023-03-29T00:33:42.110Z,5
2023-03-29T00:34:50.535Z,5
2023-03-29T00:35:58.941Z,5
2023-03-29T00:37:07.591Z,4.9
2023-03-29T00:38:15.979Z,4.9
2023-03-29T00:39:24.371Z,4.9
2023-03-29T00:40:32.986Z,4
2023-03-29T00:41:41.434Z,4
2023-03-29T00:42:49.850Z,4
2023-03-29T00:43:58.452Z,3.5
2023-03-29T00:45:06.841Z,3.5
2023-03-29T00:46:15.290Z,3.5
2023-03-29T00:47:23.898Z,4.2
2023-03-29T00:48:32.305Z,4.2
2023-03-29T00:49:40.673Z,4.2
2023-03-29T00:50:49.284Z,3.9
2023-03-29T00:51:57.664Z,3.9
2023-03-29T00:53:06.093Z,3.9
2023-03-29T00:54:15.128Z,5.1
2023-03-29T00:55:23.073Z,5.1
2023-03-29T00:56:31.467Z,5.1
2023-03-29T00:57:40.075Z,6
2023-03-29T00:58:48.483Z,6
2023-03-29T00:59:56.865Z,6
2023-03-29T01:01:05.470Z,6.9
2023-03-29T01:02:13.925Z,6.9
2023-03-29T01:03:22.305Z,6.9
2023-03-29T01:04:30.874Z,4.8
2023-03-29T01:05:39.322Z,4.8
2023-03-29T01:06:47.736Z,4.8
2023-03-29T01:07:56.352Z,5.1
2023-03-29T01:09:04.759Z,5.1
2023-03-29T01:10:13.168Z,5.1
2023-03-29T01:11:21.772Z,4.7
2023-03-29T01:12:30.209Z,4.7
2023-03-29T01:13:38.685Z,4.7
2023-03-29T01:14:47.281Z,5.3
2023-03-29T01:15:55.709Z,5.3
2023-03-29T01:17:04.093Z,5.3
2023-03-29T01:18:12.705Z,5.3
2023-03-29T01:19:21.120Z,5.3
2023-03-29T01:20:29.515Z,5.3
2023-03-29T01:21:38.129Z,5.1
2023-03-29T01:22:46.561Z,5.1
2023-03-29T01:23:54.950Z,5.1
2023-03-29T01:25:03.597Z,8.6
2023-03-29T01:26:12.022Z,8.6
2023-03-29T01:27:20.395Z,8.6
2023-03-29T01:28:29.021Z,4.8
2023-03-29T01:29:37.430Z,4.8
2023-03-29T01:30:45.868Z,4.8
2023-03-29T01:31:54.501Z,5.3
2023-03-29T01:33:02.887Z,5.3
2023-03-29T01:34:11.279Z,5.3
2023-03-29T01:35:19.877Z,8.5
2023-03-29T01:36:28.329Z,8.5
2023-03-29T01:37:36.740Z,8.5
2023-03-29T01:38:45.374Z,5.7
2023-03-29T01:39:53.794Z,5.7
2023-03-29T01:41:02.281Z,5.7
2023-03-29T01:42:10.832Z,5.6
2023-03-29T01:43:19.256Z,5.6
2023-03-29T01:44:27.644Z,5.6
2023-03-29T01:45:36.284Z,5.6
2023-03-29T01:46:44.719Z,5.6
2023-03-29T01:47:53.123Z,5.6
2023-03-29T01:49:01.698Z,7.7
2023-03-29T01:50:10.128Z,7.7
2023-03-29T01:51:18.521Z,7.7
2023-03-29T01:52:27.160Z,6.6
2023-03-29T01:53:35.586Z,6.6
2023-03-29T01:54:43.969Z,6.6
2023-03-29T01:55:52.568Z,7.5
2023-03-29T01:57:00.983Z,7.5
2023-03-29T01:58:09.390Z,7.5
2023-03-29T01:59:17.989Z,6.4
2023-03-29T02:00:26.394Z,6.4
2023-03-29T02:01:34.824Z,6.4
2023-03-29T02:02:43.501Z,7.1
2023-03-29T02:03:51.849Z,7.1
2023-03-29T02:05:00.230Z,7.1
2023-03-29T02:06:08.850Z,7
2023-03-29T02:07:17.282Z,7
2023-03-29T02:08:25.705Z,7
2023-03-29T02:09:34.308Z,9.1
2023-03-29T02:10:42.724Z,9.1
2023-03-29T02:11:51.117Z,9.1
2023-03-29T02:12:59.748Z,8.8
2023-03-29T02:14:08.140Z,8.8
2023-03-29T02:15:16.533Z,8.8
2023-03-29T02:16:25.189Z,8.4
2023-03-29T02:17:33.627Z,8.4
2023-03-29T02:18:42.034Z,8.4
2023-03-29T02:19:50.639Z,8
2023-03-29T02:20:59.206Z,8
2023-03-29T02:22:07.444Z,8
2023-03-29T02:23:16.051Z,8.5
2023-03-29T02:24:24.445Z,8.5
2023-03-29T02:25:32.858Z,8.5
2023-03-29T02:26:41.469Z,8.4
2023-03-29T02:27:49.904Z,8.4
2023-03-29T02:28:58.306Z,8.4
2023-03-29T02:30:06.945Z,8.5
2023-03-29T02:31:15.360Z,8.5
2023-03-29T02:32:23.755Z,8.5
2023-03-29T02:33:32.370Z,9.7
2023-03-29T02:34:40.805Z,9.7
2023-03-29T02:35:49.205Z,9.7
2023-03-29T02:36:57.806Z,8.8
2023-03-29T02:38:06.178Z,8.8
2023-03-29T02:39:14.585Z,8.8
2023-03-29T02:40:23.201Z,8.9
2023-03-29T02:41:31.595Z,8.9
2023-03-29T02:42:39.999Z,8.9
2023-03-29T02:43:48.586Z,7.3
2023-03-29T02:44:57.000Z,7.3
2023-03-29T02:46:05.390Z,7.3
2023-03-29T02:47:14.038Z,9.2
2023-03-29T02:48:22.409Z,9.2
2023-03-29T02:49:30.813Z,9.2
2023-03-29T02:50:39.454Z,9.1
2023-03-29T02:51:47.833Z,9.1
2023-03-29T02:52:56.246Z,9.1
2023-03-29T02:54:04.840Z,9.1
2023-03-29T02:55:13.232Z,9.1
2023-03-29T02:56:21.653Z,9.1
2023-03-29T02:57:30.275Z,8.4
2023-03-29T02:58:38.680Z,8.4
2023-03-29T02:59:47.061Z,8.4
2023-03-29T03:00:55.670Z,12.3
2023-03-29T03:02:04.119Z,12.3
2023-03-29T03:03:12.537Z,12.3
2023-03-29T03:04:21.054Z,9.5
2023-03-29T03:05:29.451Z,9.5
2023-03-29T03:06:37.870Z,9.5
2023-03-29T03:07:46.455Z,8
2023-03-29T03:08:54.840Z,8
2023-03-29T03:10:03.247Z,8
2023-03-29T03:11:11.880Z,8.1
2023-03-29T03:12:20.312Z,8.1
2023-03-29T03:13:28.730Z,8.1
2023-03-29T03:14:37.338Z,8.9
2023-03-29T03:15:45.732Z,8.9
2023-03-29T03:16:54.165Z,8.9
2023-03-29T03:18:02.786Z,8.1
2023-03-29T03:19:11.178Z,8.1
2023-03-29T03:20:19.634Z,8.1
2023-03-29T03:21:28.250Z,8.5
2023-03-29T03:22:36.666Z,8.5
2023-03-29T03:23:45.042Z,8.5
2023-03-29T03:24:53.659Z,12.5
2023-03-29T03:26:02.056Z,12.5
2023-03-29T03:27:10.460Z,12.5
2023-03-29T03:28:19.060Z,9.9
2023-03-29T03:29:27.472Z,9.9
2023-03-29T03:30:35.881Z,9.9
2023-03-29T03:31:44.554Z,9.5
2023-03-29T03:32:52.979Z,9.5
2023-03-29T03:34:01.360Z,9.5
2023-03-29T03:35:09.970Z,11.2
2023-03-29T03:36:18.364Z,11.2
2023-03-29T03:37:26.749Z,11.2
2023-03-29T03:38:35.412Z,10.9
2023-03-29T03:39:45.359Z,10.9
2023-03-29T03:40:53.734Z,10.9
2023-03-29T03:42:02.360Z,10
2023-03-29T03:43:10.790Z,10
2023-03-29T03:44:19.169Z,10
2023-03-29T03:45:27.773Z,12.3
2023-03-29T03:46:36.210Z,12.3
2023-03-29T03:47:44.624Z,12.3
2023-03-29T03:48:53.216Z,10
2023-03-29T03:50:01.653Z,10
2023-03-29T03:51:10.020Z,10
2023-03-29T03:52:18.633Z,26.200001
2023-03-29T03:53:27.056Z,26.200001
2023-03-29T03:54:35.489Z,26.200001
2023-03-29T03:55:44.116Z,14.6
2023-03-29T03:56:52.557Z,14.6
2023-03-29T03:58:00.939Z,14.6
2023-03-29T03:59:09.552Z,8.8
2023-03-29T04:00:17.957Z,8.8
2023-03-29T04:01:26.376Z,8.8
2023-03-29T04:02:35.048Z,9.6
2023-03-29T04:03:43.427Z,9.6
2023-03-29T04:04:51.795Z,9.6
2023-03-29T04:06:00.375Z,9.4
2023-03-29T04:07:08.809Z,9.4
2023-03-29T04:08:17.190Z,9.4
2023-03-29T04:09:25.779Z,11.5
2023-03-29T04:10:34.177Z,11.5
2023-03-29T04:11:42.541Z,11.5
2023-03-29T04:12:51.179Z,12.6
2023-03-29T04:13:59.590Z,12.6
2023-03-29T04:15:08.017Z,12.6
2023-03-29T04:16:16.636Z,12.8
2023-03-29T04:17:25.016Z,12.8
2023-03-29T04:18:33.407Z,12.8
2023-03-29T04:19:41.946Z,10.8
2023-03-29T04:20:50.331Z,10.8
2023-03-29T04:21:58.724Z,10.8
2023-03-29T04:23:07.313Z,9.7
2023-03-29T04:24:15.698Z,9.7
2023-03-29T04:25:24.112Z,9.7
2023-03-29T04:26:32.739Z,10.6
2023-03-29T04:27:41.110Z,10.6
2023-03-29T04:28:49.549Z,10.6
2023-03-29T04:29:58.161Z,12.1
2023-03-29T04:31:07.007Z,12.1
2023-03-29T04:32:15.398Z,12.1
2023-03-29T04:33:24.024Z,10.2
2023-03-29T04:34:32.448Z,10.2
2023-03-29T04:35:40.941Z,10.2
2023-03-29T04:36:49.574Z,12.5
2023-03-29T04:37:57.941Z,12.5
2023-03-29T04:39:06.332Z,12.5
2023-03-29T04:40:14.940Z,14.7
2023-03-29T04:41:23.296Z,14.7
2023-03-29T04:42:31.669Z,14.7
2023-03-29T04:43:40.446Z,11.9
2023-03-29T04:44:48.686Z,11.9
2023-03-29T04:45:57.059Z,11.9
2023-03-29T04:47:05.594Z,9.5
2023-03-29T04:48:13.968Z,9.5
2023-03-29T04:49:23.953Z,9.5
2023-03-29T04:50:30.877Z,10.7
2023-03-29T04:51:39.254Z,10.7
2023-03-29T04:52:47.624Z,10.7
2023-03-29T04:53:56.193Z,10.6
2023-03-29T04:55:04.566Z,10.6
2023-03-29T04:56:12.911Z,10.6
2023-03-29T04:57:21.517Z,10.4
2023-03-29T04:58:32.150Z,10.4
2023-03-29T04:59:38.197Z,10.4
2023-03-29T05:00:46.757Z,9.3
2023-03-29T05:01:55.135Z,9.3
2023-03-29T05:03:03.480Z,9.3
2023-03-29T05:04:12.848Z,12.2
2023-03-29T05:05:20.453Z,12.2
2023-03-29T05:06:28.845Z,12.2
2023-03-29T05:07:37.431Z,9.2
2023-03-29T05:08:45.805Z,9.2
2023-03-29T05:09:54.164Z,9.2
2023-03-29T05:11:02.957Z,10
2023-03-29T05:12:11.158Z,10
2023-03-29T05:13:19.558Z,10
2023-03-29T05:14:28.192Z,11.3
2023-03-29T05:15:36.537Z,11.3
2023-03-29T05:16:45.003Z,11.3
2023-03-29T05:17:53.582Z,67.599998
2023-03-29T05:19:01.902Z,67.599998
2023-03-29T05:20:10.299Z,67.599998
2023-03-29T05:21:18.814Z,201.19999
2023-03-29T05:22:27.155Z,201.19999
2023-03-29T05:23:35.463Z,201.19999
2023-03-29T05:24:44.010Z,12.3
2023-03-29T05:25:52.336Z,12.3
2023-03-29T05:27:00.669Z,12.3
2023-03-29T05:28:09.191Z,91.800003
2023-03-29T05:29:17.568Z,91.800003
2023-03-29T05:30:25.927Z,91.800003
2023-03-29T05:31:34.483Z,37.5
2023-03-29T05:32:42.827Z,37.5
2023-03-29T05:33:51.091Z,37.5
2023-03-29T05:34:59.625Z,45.299999
2023-03-29T05:36:08.035Z,45.299999
2023-03-29T05:37:16.270Z,45.299999
2023-03-29T05:38:24.792Z,31
2023-03-29T05:39:34.112Z,31
2023-03-29T05:40:41.443Z,31
2023-03-29T05:41:49.978Z,46.200001
2023-03-29T05:42:58.340Z,46.200001
2023-03-29T05:44:06.666Z,46.200001
2023-03-29T05:45:15.195Z,51.599998
2023-03-29T05:46:23.601Z,51.599998
2023-03-29T05:47:31.893Z,51.599998
2023-03-29T05:48:40.395Z,13.4
2023-03-29T05:49:48.727Z,13.4
2023-03-29T05:50:57.040Z,13.4
2023-03-29T05:52:05.580Z,8.9
2023-03-29T05:53:13.905Z,8.9
2023-03-29T05:54:22.222Z,8.9
2023-03-29T05:55:30.771Z,10.4
2023-03-29T05:56:39.133Z,10.4
2023-03-29T05:57:47.409Z,10.4
2023-03-29T05:58:55.939Z,11.6
2023-03-29T06:00:04.264Z,11.6
2023-03-29T06:01:12.616Z,11.6
2023-03-29T06:02:21.214Z,43.099998
2023-03-29T06:03:29.600Z,43.099998
2023-03-29T06:04:37.903Z,43.099998
2023-03-29T06:05:48.419Z,31.700001
2023-03-29T06:06:54.665Z,31.700001
2023-03-29T06:08:02.973Z,31.700001
2023-03-29T06:09:11.512Z,33.599998
2023-03-29T06:10:19.818Z,33.599998
2023-03-29T06:11:28.148Z,33.599998
2023-03-29T06:12:36.667Z,11.5
2023-03-29T06:13:45.007Z,11.5
2023-03-29T06:14:53.327Z,11.5
2023-03-29T06:16:01.846Z,16.299999
2023-03-29T06:17:10.189Z,16.299999
2023-03-29T06:18:18.492Z,16.299999
2023-03-29T06:19:26.995Z,13.2
2023-03-29T06:20:35.309Z,13.2
2023-03-29T06:21:43.660Z,13.2
2023-03-29T06:22:52.192Z,12.4
2023-03-29T06:24:00.510Z,12.4
2023-03-29T06:25:08.828Z,12.4
2023-03-29T06:26:17.366Z,11.9
2023-03-29T06:27:25.702Z,11.9
2023-03-29T06:28:34.018Z,11.9
2023-03-29T06:29:42.540Z,11.5
2023-03-29T06:30:50.887Z,11.5
2023-03-29T06:31:59.247Z,11.5
2023-03-29T06:33:07.798Z,8.3
2023-03-29T06:34:16.090Z,8.3
2023-03-29T06:35:24.374Z,8.3
2023-03-29T06:36:32.913Z,20.4
2023-03-29T06:37:41.228Z,20.4
2023-03-29T06:38:49.534Z,20.4
2023-03-29T06:39:58.053Z,32.099998
2023-03-29T06:41:06.393Z,32.099998
2023-03-29T06:42:20.946Z,32.099998
2023-03-29T06:43:23.236Z,13.7
2023-03-29T06:44:31.577Z,13.7
2023-03-29T06:45:39.885Z,13.7
2023-03-29T06:46:48.465Z,16.5
2023-03-29T06:47:56.769Z,16.5
2023-03-29T06:49:05.029Z,16.5
2023-03-29T06:50:13.584Z,7
2023-03-29T06:51:23.284Z,7
2023-03-29T06:52:30.209Z,7
2023-03-29T06:53:38.744Z,9.5
2023-03-29T06:54:47.049Z,9.5
2023-03-29T06:55:55.352Z,9.5
2023-03-29T06:57:03.893Z,13.6
2023-03-29T06:58:12.195Z,13.6
2023-03-29T06:59:20.516Z,13.6
2023-03-29T07:00:29.036Z,6.3
2023-03-29T07:01:37.413Z,6.3
2023-03-29T07:02:45.760Z,6.3
2023-03-29T07:03:54.218Z,9.8
2023-03-29T07:05:02.522Z,9.8
2023-03-29T07:06:10.876Z,9.8
2023-03-29T07:07:19.367Z,9.8
2023-03-29T07:08:27.674Z,9.8
2023-03-29T07:09:35.999Z,9.8
2023-03-29T07:10:44.541Z,208.6
2023-03-29T07:11:52.873Z,208.6
2023-03-29T07:13:01.203Z,208.6
2023-03-29T07:14:09.718Z,14.7
2023-03-29T07:15:18.055Z,14.7
2023-03-29T07:16:26.406Z,14.7
2023-03-29T07:17:34.954Z,60.900002
2023-03-29T07:18:43.246Z,60.900002
2023-03-29T07:19:51.551Z,60.900002
2023-03-29T07:21:00.264Z,71.300003
2023-03-29T07:22:08.438Z,71.300003
2023-03-29T07:23:16.727Z,71.300003
2023-03-29T07:24:25.254Z,9.7
2023-03-29T07:25:33.565Z,9.7
2023-03-29T07:26:49.200Z,9.7
2023-03-29T07:27:50.426Z,9.8
2023-03-29T07:28:58.801Z,9.8
2023-03-29T07:30:07.075Z,9.8
2023-03-29T07:31:15.612Z,20.1
2023-03-29T07:32:23.992Z,20.1
2023-03-29T07:33:32.348Z,20.1
2023-03-29T07:34:40.790Z,6.7
2023-03-29T07:35:49.108Z,6.7
2023-03-29T07:36:57.429Z,6.7
2023-03-29T07:38:05.974Z,8.6
2023-03-29T07:39:14.268Z,8.6
2023-03-29T07:40:22.572Z,8.6
2023-03-29T07:41:31.121Z,7.2
2023-03-29T07:42:39.449Z,7.2
2023-03-29T07:43:47.783Z,7.2
2023-03-29T07:44:56.290Z,10.2
2023-03-29T07:46:04.775Z,10.2
2023-03-29T07:47:12.941Z,10.2
2023-03-29T07:48:21.456Z,11.6
2023-03-29T07:49:29.786Z,11.6
2023-03-29T07:50:38.100Z,11.6
2023-03-29T07:51:46.649Z,23.6
2023-03-29T07:52:54.964Z,23.6
2023-03-29T07:54:03.315Z,23.6
2023-03-29T07:55:11.794Z,14
2023-03-29T07:56:20.116Z,14
2023-03-29T07:57:28.490Z,14
2023-03-29T07:58:36.953Z,9.3
2023-03-29T07:59:45.266Z,9.3
2023-03-29T08:00:53.633Z,9.3
2023-03-29T08:02:02.119Z,14.5
2023-03-29T08:03:10.546Z,14.5
2023-03-29T08:04:18.816Z,14.5
2023-03-29T08:05:38.228Z,9
2023-03-29T08:06:35.590Z,9
2023-03-29T08:07:43.915Z,9
2023-03-29T08:08:52.436Z,7
2023-03-29T08:10:00.796Z,7
2023-03-29T08:11:09.073Z,7
2023-03-29T08:12:17.602Z,5.7
2023-03-29T08:13:25.928Z,5.7
2023-03-29T08:14:34.245Z,5.7
2023-03-29T08:15:42.777Z,6.4
2023-03-29T08:16:51.123Z,6.4
2023-03-29T08:17:59.440Z,6.4
2023-03-29T08:19:07.949Z,7.8
2023-03-29T08:20:16.263Z,7.8
2023-03-29T08:21:24.621Z,7.8
2023-03-29T08:22:33.157Z,6.5
2023-03-29T08:23:41.461Z,6.5
2023-03-29T08:24:49.765Z,6.5
2023-03-29T08:25:58.324Z,7.7
2023-03-29T08:27:06.646Z,7.7
2023-03-29T08:28:14.950Z,7.7
2023-03-29T08:29:23.471Z,7.4
2023-03-29T08:30:31.786Z,7.4
2023-03-29T08:31:40.202Z,7.4
2023-03-29T08:32:51.042Z,7.4
2023-03-29T08:33:56.975Z,7.4
2023-03-29T08:35:05.297Z,7.4
2023-03-29T08:36:13.857Z,9.7
2023-03-29T08:37:22.136Z,9.7
2023-03-29T08:38:30.453Z,9.7
2023-03-29T08:39:38.972Z,7.9
2023-03-29T08:40:47.282Z,7.9
2023-03-29T08:41:55.635Z,7.9
2023-03-29T08:43:04.132Z,10.1
2023-03-29T08:44:12.438Z,10.1
2023-03-29T08:45:20.767Z,10.1
2023-03-29T08:46:34.706Z,6.6
2023-03-29T08:47:37.632Z,6.6
2023-03-29T08:48:45.920Z,6.6
2023-03-29T08:49:54.451Z,10.7
2023-03-29T08:51:02.886Z,10.7
2023-03-29T08:52:11.118Z,10.7
2023-03-29T08:53:19.612Z,5.6
2023-03-29T08:54:27.932Z,5.6
2023-03-29T08:55:36.252Z,5.6
2023-03-29T08:56:45.504Z,6.1
2023-03-29T08:57:53.847Z,6.1
2023-03-29T08:59:02.138Z,6.1
2023-03-29T09:00:10.645Z,8.3
2023-03-29T09:01:19.035Z,8.3
2023-03-29T09:02:27.398Z,8.3
2023-03-29T09:03:35.901Z,6.7
2023-03-29T09:04:44.142Z,6.7
2023-03-29T09:05:52.517Z,6.7
2023-03-29T09:07:01.031Z,7.7
2023-03-29T09:08:09.338Z,7.7
2023-03-29T09:09:17.656Z,7.7
2023-03-29T09:10:26.172Z,6.9
2023-03-29T09:11:34.482Z,6.9
2023-03-29T09:12:42.808Z,6.9
2023-03-29T09:13:51.362Z,5.5
2023-03-29T09:14:59.639Z,5.5
2023-03-29T09:16:08.016Z,5.5
2023-03-29T09:17:16.492Z,6.4
2023-03-29T09:18:24.805Z,6.4
2023-03-29T09:19:33.121Z,6.4
2023-03-29T09:20:41.650Z,5.9
2023-03-29T09:21:52.547Z,5.9
2023-03-29T09:23:00.880Z,5.9
2023-03-29T09:24:09.407Z,4.8
2023-03-29T09:25:17.724Z,4.8
2023-03-29T09:26:26.044Z,4.8
2023-03-29T09:27:34.563Z,5.1
2023-03-29T09:28:42.866Z,5.1
2023-03-29T09:29:51.209Z,5.1
2023-03-29T09:30:59.714Z,4.7
2023-03-29T09:32:08.047Z,4.7
2023-03-29T09:33:16.348Z,4.7
2023-03-29T09:34:24.863Z,5.6
2023-03-29T09:35:33.204Z,5.6
2023-03-29T09:36:41.511Z,5.6
2023-03-29T09:37:50.034Z,6.7
2023-03-29T09:38:58.372Z,6.7
2023-03-29T09:40:06.680Z,6.7
2023-03-29T09:41:15.203Z,4.3
2023-03-29T09:42:23.530Z,4.3
2023-03-29T09:43:31.855Z,4.3
2023-03-29T09:44:40.367Z,5.8
2023-03-29T09:45:49.282Z,5.8
2023-03-29T09:46:57.006Z,5.8
2023-03-29T09:48:05.536Z,5.1
2023-03-29T09:49:15.453Z,5.1
2023-03-29T09:50:30.649Z,5.1
2023-03-29T09:51:30.729Z,5.3
2023-03-29T09:52:39.017Z,5.3
2023-03-29T09:53:47.341Z,5.3
2023-03-29T09:54:55.866Z,5.6
2023-03-29T09:56:04.188Z,5.6
2023-03-29T09:57:12.568Z,5.6
2023-03-29T09:58:21.044Z,5
2023-03-29T09:59:29.371Z,5
2023-03-29T10:00:37.701Z,5
2023-03-29T10:01:46.285Z,5.3
2023-03-29T10:02:54.641Z,5.3
2023-03-29T10:04:02.848Z,5.3
2023-03-29T10:05:11.348Z,5.6
2023-03-29T10:06:19.666Z,5.6
2023-03-29T10:07:28.006Z,5.6
2023-03-29T10:08:36.549Z,5.4
2023-03-29T10:09:44.847Z,5.4
2023-03-29T10:10:53.175Z,5.4
2023-03-29T10:12:01.718Z,7.4
2023-03-29T10:13:10.035Z,7.4
2023-03-29T10:14:18.364Z,7.4
2023-03-29T10:15:29.942Z,4.8
2023-03-29T10:16:35.273Z,4.8
2023-03-29T10:17:43.576Z,4.8
2023-03-29T10:18:52.108Z,7.2
2023-03-29T10:20:02.270Z,7.2
2023-03-29T10:21:08.908Z,7.2
2023-03-29T10:22:17.453Z,6.5
2023-03-29T10:23:25.804Z,6.5
2023-03-29T10:24:34.147Z,6.5
2023-03-29T10:25:43.145Z,6.4
2023-03-29T10:26:51.063Z,6.4
2023-03-29T10:27:59.426Z,6.4
2023-03-29T10:29:08.034Z,10
2023-03-29T10:30:16.321Z,10
2023-03-29T10:31:24.763Z,10
2023-03-29T10:32:33.307Z,5.7
2023-03-29T10:33:41.653Z,5.7
2023-03-29T10:34:49.971Z,5.7
2023-03-29T10:35:58.523Z,4.4
2023-03-29T10:37:06.842Z,4.4
2023-03-29T10:38:15.198Z,4.4
2023-03-29T10:39:23.742Z,5.5
2023-03-29T10:40:32.096Z,5.5
2023-03-29T10:41:40.448Z,5.5
2023-03-29T10:42:48.967Z,5.8
2023-03-29T10:43:57.308Z,5.8
2023-03-29T10:45:05.635Z,5.8
2023-03-29T10:46:14.200Z,6.4
2023-03-29T10:47:22.536Z,6.4
2023-03-29T10:48:30.850Z,6.4
2023-03-29T10:49:39.429Z,5.4
2023-03-29T10:50:47.735Z,5.4
2023-03-29T10:51:56.088Z,5.4
2023-03-29T10:53:04.611Z,6.9
2023-03-29T10:54:12.949Z,6.9
2023-03-29T10:55:21.286Z,6.9
2023-03-29T10:56:29.836Z,5
2023-03-29T10:57:38.193Z,5
2023-03-29T10:58:46.528Z,5
2023-03-29T10:59:55.079Z,4.8
2023-03-29T11:01:03.576Z,4.8
2023-03-29T11:02:11.753Z,4.8
2023-03-29T11:03:21.524Z,6.2
2023-03-29T11:04:28.668Z,6.2
2023-03-29T11:05:37.005Z,6.2
2023-03-29T11:06:45.532Z,6.1
2023-03-29T11:07:53.862Z,6.1
2023-03-29T11:09:02.197Z,6.1
2023-03-29T11:10:10.724Z,9.8
2023-03-29T11:11:19.068Z,9.8
2023-03-29T11:12:27.417Z,9.8
2023-03-29T11:13:35.943Z,4.1
2023-03-29T11:14:44.259Z,4.1
2023-03-29T11:15:52.639Z,4.1
2023-03-29T11:17:01.161Z,5.7
2023-03-29T11:18:09.539Z,5.7
2023-03-29T11:19:17.855Z,5.7
2023-03-29T11:20:26.401Z,5.1
2023-03-29T11:21:34.767Z,5.1
2023-03-29T11:22:43.087Z,5.1
2023-03-29T11:23:51.655Z,5.6
2023-03-29T11:24:59.968Z,5.6
2023-03-29T11:26:08.293Z,5.6
2023-03-29T11:27:16.857Z,4.8
2023-03-29T11:28:25.239Z,4.8
2023-03-29T11:29:33.572Z,4.8
2023-03-29T11:30:42.107Z,6.6
2023-03-29T11:31:50.455Z,6.6
2023-03-29T11:32:58.834Z,6.6
2023-03-29T11:34:07.320Z,5.4
2023-03-29T11:35:15.662Z,5.4
2023-03-29T11:36:24.008Z,5.4
2023-03-29T11:37:32.580Z,4.7
2023-03-29T11:38:41.766Z,4.7
2023-03-29T11:39:49.269Z,4.7
2023-03-29T11:40:57.815Z,5.9
2023-03-29T11:42:06.137Z,5.9
2023-03-29T11:43:14.502Z,5.9
2023-03-29T11:44:23.042Z,6.7
2023-03-29T11:45:31.414Z,6.7
2023-03-29T11:46:39.822Z,6.7
2023-03-29T11:47:48.371Z,5.2
2023-03-29T11:48:56.667Z,5.2
2023-03-29T11:50:05.028Z,5.2
2023-03-29T11:51:13.560Z,4.7
2023-03-29T11:52:21.920Z,4.7
2023-03-29T11:53:30.266Z,4.7
2023-03-29T11:54:38.782Z,4.1
2023-03-29T11:55:47.121Z,4.1
2023-03-29T11:56:55.487Z,4.1
2023-03-29T11:58:04.047Z,5.1
2023-03-29T11:59:12.437Z,5.1
2023-03-29T12:00:20.795Z,5.1
2023-03-29T12:01:29.366Z,3.6
2023-03-29T12:02:37.865Z,3.6
2023-03-29T12:03:47.022Z,3.6
2023-03-29T12:04:54.630Z,4
2023-03-29T12:06:02.947Z,4
2023-03-29T12:07:11.285Z,4
2023-03-29T12:08:19.836Z,4.5
2023-03-29T12:09:28.217Z,4.5
2023-03-29T12:10:36.529Z,4.5
2023-03-29T12:11:45.081Z,4.6
2023-03-29T12:12:53.431Z,4.6
2023-03-29T12:14:01.753Z,4.6
2023-03-29T12:15:10.306Z,6.3
2023-03-29T12:16:18.667Z,6.3
2023-03-29T12:17:27.037Z,6.3
2023-03-29T12:18:35.546Z,5
2023-03-29T12:19:43.944Z,5
2023-03-29T12:20:52.211Z,5
2023-03-29T12:22:00.782Z,4.9
2023-03-29T12:23:09.100Z,4.9
2023-03-29T12:24:17.432Z,4.9
2023-03-29T12:25:26.019Z,4.7
2023-03-29T12:26:34.304Z,4.7
2023-03-29T12:27:42.660Z,4.7
2023-03-29T12:28:51.189Z,5.2
2023-03-29T12:29:59.508Z,5.2
2023-03-29T12:31:07.837Z,5.2
2023-03-29T12:32:16.509Z,4.1
2023-03-29T12:33:24.734Z,4.1
2023-03-29T12:34:33.063Z,4.1
2023-03-29T12:35:41.617Z,4.8
2023-03-29T12:36:49.941Z,4.8
2023-03-29T12:37:58.286Z,4.8
2023-03-29T12:39:06.837Z,4.4
2023-03-29T12:40:15.159Z,4.4
2023-03-29T12:41:23.502Z,4.4
2023-03-29T12:42:32.048Z,4
2023-03-29T12:43:40.374Z,4
2023-03-29T12:44:48.704Z,4
2023-03-29T12:45:57.313Z,3.5
2023-03-29T12:47:05.584Z,3.5
2023-03-29T12:48:13.963Z,3.5
2023-03-29T12:49:22.506Z,4.5
2023-03-29T12:50:30.824Z,4.5
2023-03-29T12:51:39.168Z,4.5
2023-03-29T12:52:47.720Z,3.9
2023-03-29T12:53:56.041Z,3.9
2023-03-29T12:55:04.390Z,3.9
2023-03-29T12:56:12.937Z,4.8
2023-03-29T12:57:21.406Z,4.8
2023-03-29T12:58:29.623Z,4.8
2023-03-29T12:59:38.156Z,4.5
2023-03-29T13:00:46.543Z,4.5
2023-03-29T13:01:54.901Z,4.5
2023-03-29T13:03:03.441Z,4.8
2023-03-29T13:04:12.016Z,4.8
2023-03-29T13:05:20.366Z,4.8
2023-03-29T13:06:28.918Z,3.4
2023-03-29T13:07:37.242Z,3.4
2023-03-29T13:08:45.581Z,3.4
2023-03-29T13:09:54.127Z,5.6
2023-03-29T13:11:02.438Z,5.6
2023-03-29T13:12:10.776Z,5.6
2023-03-29T13:13:19.364Z,3.6
2023-03-29T13:14:27.707Z,3.6
2023-03-29T13:15:36.063Z,3.6
2023-03-29T13:16:44.606Z,4.2
2023-03-29T13:17:52.961Z,4.2
2023-03-29T13:19:01.314Z,4.2
2023-03-29T13:20:09.830Z,3.6
2023-03-29T13:21:18.170Z,3.6
2023-03-29T13:22:26.524Z,3.6
2023-03-29T13:23:35.087Z,4.6
2023-03-29T13:24:43.449Z,4.6
2023-03-29T13:25:51.783Z,4.6
2023-03-29T13:27:00.480Z,3.6
2023-03-29T13:28:08.894Z,3.6
2023-03-29T13:29:17.295Z,3.6
2023-03-29T13:30:25.824Z,4.1
2023-03-29T13:31:34.194Z,4.1
2023-03-29T13:32:42.533Z,4.1
2023-03-29T13:33:51.074Z,4
2023-03-29T13:34:59.448Z,4
2023-03-29T13:36:07.832Z,4
2023-03-29T13:37:16.389Z,4.3
2023-03-29T13:38:24.775Z,4.3
2023-03-29T13:39:33.108Z,4.3
2023-03-29T13:40:41.667Z,4.4
2023-03-29T13:41:50.019Z,4.4
2023-03-29T13:42:58.358Z,4.4
2023-03-29T13:44:06.894Z,4
2023-03-29T13:45:15.267Z,4
2023-03-29T13:46:23.621Z,4
2023-03-29T13:47:32.157Z,4.8
2023-03-29T13:48:40.517Z,4.8
2023-03-29T13:49:51.217Z,4.8
2023-03-29T13:50:57.393Z,4.3
2023-03-29T13:52:05.749Z,4.3
2023-03-29T13:53:14.118Z,4.3
2023-03-29T13:54:22.692Z,3.8
2023-03-29T13:55:32.781Z,3.8
2023-03-29T13:56:39.463Z,3.8
2023-03-29T13:57:47.936Z,5.6
2023-03-29T13:58:56.265Z,5.6
2023-03-29T14:00:04.617Z,5.6
2023-03-29T14:01:13.208Z,3.9
2023-03-29T14:02:21.591Z,3.9
2023-03-29T14:03:30.036Z,3.9
2023-03-29T14:04:38.444Z,4.3
2023-03-29T14:05:46.801Z,4.3
2023-03-29T14:06:55.639Z,4.3
2023-03-29T14:08:04.577Z,4.7
2023-03-29T14:09:12.931Z,4.7
2023-03-29T14:10:21.301Z,4.7
2023-03-29T14:11:29.922Z,4.6
2023-03-29T14:12:40.443Z,4.6
2023-03-29T14:13:46.718Z,4.6
2023-03-29T14:14:59.043Z,2.8
2023-03-29T14:16:03.813Z,2.8
2023-03-29T14:17:12.021Z,2.8
2023-03-29T14:18:20.590Z,4.2
2023-03-29T14:19:28.904Z,4.2
2023-03-29T14:20:37.245Z,4.2
2023-03-29T14:21:45.841Z,4.1
2023-03-29T14:22:54.193Z,4.1
2023-03-29T14:24:02.537Z,4.1
2023-03-29T14:25:11.106Z,5.9
2023-03-29T14:26:19.448Z,5.9
2023-03-29T14:27:27.791Z,5.9
2023-03-29T14:28:36.322Z,3.3
2023-03-29T14:29:44.645Z,3.3
2023-03-29T14:30:52.995Z,3.3
2023-03-29T14:32:01.623Z,5
2023-03-29T14:33:09.990Z,5
2023-03-29T14:34:18.286Z,5
2023-03-29T14:35:26.854Z,4.7
2023-03-29T14:36:35.346Z,4.7
2023-03-29T14:37:43.790Z,4.7
2023-03-29T14:38:52.378Z,3.5
2023-03-29T14:40:00.741Z,3.5
2023-03-29T14:41:09.092Z,3.5
2023-03-29T14:42:17.667Z,4.4
2023-03-29T14:43:26.031Z,4.4
2023-03-29T14:44:34.399Z,4.4
2023-03-29T14:45:42.969Z,3.6
2023-03-29T14:46:51.292Z,3.6
2023-03-29T14:48:00.122Z,3.6
2023-03-29T14:49:08.646Z,4.3
2023-03-29T14:50:16.978Z,4.3
2023-03-29T14:51:25.336Z,4.3
2023-03-29T14:52:33.905Z,4.5
2023-03-29T14:53:42.244Z,4.5
2023-03-29T14:54:50.639Z,4.5
2023-03-29T14:55:59.179Z,4.9
2023-03-29T14:57:07.623Z,4.9
2023-03-29T14:58:15.891Z,4.9
2023-03-29T14:59:24.445Z,4.2
2023-03-29T15:00:32.776Z,4.2
2023-03-29T15:01:41.184Z,4.2
2023-03-29T15:02:49.804Z,3.5
2023-03-29T15:03:58.149Z,3.5
2023-03-29T15:05:06.542Z,3.5
2023-03-29T15:39:22.158Z,0
2023-03-29T15:40:30.511Z,0
2023-03-29T15:41:38.832Z,0
2023-03-29T15:42:47.383Z,3.7
2023-03-29T15:43:55.747Z,3.7
2023-03-29T15:45:04.102Z,3.7
2023-03-29T15:46:12.650Z,4
2023-03-29T15:47:21.103Z,4
2023-03-29T15:48:29.389Z,4
2023-03-29T15:49:37.987Z,5.6
2023-03-29T15:50:46.305Z,5.6
2023-03-29T15:51:54.651Z,5.6
2023-03-29T15:53:12.564Z,5
2023-03-29T15:54:11.566Z,5
2023-03-29T15:55:19.944Z,5
2023-03-29T15:56:28.470Z,6.3
2023-03-29T15:57:36.923Z,6.3
2023-03-29T15:58:45.425Z,6.3
2023-03-29T15:59:53.977Z,5.3
2023-03-29T16:01:02.447Z,5.3
2023-03-29T16:02:10.813Z,5.3
2023-03-29T16:03:19.499Z,6.7
2023-03-29T16:04:27.822Z,6.7
2023-03-29T16:05:36.165Z,6.7